createdAt,value
2023-04-27T00:01:18.346Z,66.05
2023-04-27T00:03:51.131Z,66.00
2023-04-27T00:06:23.243Z,66.32
2023-04-27T00:08:55.659Z,66.44
2023-04-27T00:11:27.560Z,66.41
2023-04-27T00:13:59.948Z,66.92
2023-04-27T00:16:31.844Z,66.70
2023-04-27T00:19:04.393Z,67.00
2023-04-27T00:21:36.313Z,66.99
2023-04-27T00:24:09.103Z,67.33
2023-04-27T00:26:39.365Z,67.47
2023-04-27T00:29:11.562Z,67.66
2023-04-27T00:31:44.681Z,67.42
2023-04-27T00:34:16.461Z,67.33
2023-04-27T00:36:48.310Z,67.56
2023-04-27T00:39:20.684Z,67.77
2023-04-27T00:41:52.493Z,67.92
2023-04-27T00:44:29.167Z,67.66
2023-04-27T00:47:01.349Z,67.28
2023-04-27T00:49:33.527Z,67.15
2023-04-27T00:52:05.559Z,67.30
2023-04-27T00:54:38.041Z,67.61
2023-04-27T00:57:10.672Z,67.41
2023-04-27T00:59:42.813Z,67.44
2023-04-27T01:02:15.056Z,67.65
2023-04-27T01:04:47.126Z,67.79
2023-04-27T01:07:19.594Z,67.75
2023-04-27T01:09:51.551Z,67.85
2023-04-27T01:12:23.515Z,67.58
2023-04-27T01:14:55.370Z,67.80
2023-04-27T01:17:27.218Z,67.75
2023-04-27T01:19:59.578Z,68.36
2023-04-27T01:22:31.342Z,68.61
2023-04-27T01:25:03.530Z,68.51
2023-04-27T01:27:34.622Z,68.69
2023-04-27T01:30:08.353Z,68.90
2023-04-27T01:32:41.374Z,69.05
2023-04-27T01:35:13.659Z,69.05
2023-04-27T01:37:45.796Z,69.03
2023-04-27T01:40:18.269Z,69.35
2023-04-27T01:42:50.076Z,69.42
2023-04-27T01:45:22.085Z,69.55
2023-04-27T01:47:54.861Z,69.30
2023-04-27T01:50:27.340Z,69.38
2023-04-27T01:52:59.064Z,69.42
2023-04-27T01:55:31.230Z,69.56
2023-04-27T01:58:03.354Z,69.86
2023-04-27T02:00:35.194Z,69.69
2023-04-27T02:03:07.056Z,69.82
2023-04-27T02:05:39.026Z,69.57
2023-04-27T02:08:11.321Z,69.71
2023-04-27T02:10:44.111Z,69.75
2023-04-27T02:13:15.952Z,69.67
2023-04-27T02:15:47.956Z,69.93
2023-04-27T02:18:18.919Z,70.14
2023-04-27T02:20:51.553Z,70.22
2023-04-27T02:23:23.323Z,70.10
2023-04-27T02:25:55.642Z,70.41
2023-04-27T02:28:27.501Z,70.54
2023-04-27T02:30:59.850Z,70.66
2023-04-27T02:33:31.763Z,70.76
2023-04-27T02:36:03.410Z,70.76
2023-04-27T02:38:35.140Z,70.82
2023-04-27T02:41:07.558Z,71.05
2023-04-27T02:43:39.269Z,71.52
2023-04-27T02:46:11.086Z,71.59
2023-04-27T02:48:42.811Z,71.51
2023-04-27T02:51:14.513Z,71.60
2023-04-27T02:53:46.429Z,71.90
2023-04-27T02:56:18.338Z,71.62
2023-04-27T02:58:50.435Z,71.60
2023-04-27T03:01:22.754Z,71.87
2023-04-27T03:03:54.845Z,71.76
2023-04-27T03:06:27.798Z,71.81
2023-04-27T03:08:58.076Z,71.81
2023-04-27T03:11:30.164Z,72.01
2023-04-27T03:14:02.839Z,72.61
2023-04-27T03:16:35.811Z,72.50
2023-04-27T03:19:07.640Z,72.18
2023-04-27T03:21:40.007Z,72.22
2023-04-27T03:24:11.799Z,72.47
2023-04-27T03:26:43.908Z,72.59
2023-04-27T03:29:15.885Z,72.84
2023-04-27T03:31:47.891Z,73.12
2023-04-27T03:34:20.907Z,73.24
2023-04-27T03:36:52.624Z,73.61
2023-04-27T03:39:24.395Z,73.11
2023-04-27T03:41:56.296Z,72.80
2023-04-27T03:44:28.117Z,72.83
2023-04-27T03:47:00.575Z,72.86
2023-04-27T03:49:32.442Z,73.11
2023-04-27T03:52:04.467Z,73.13
2023-04-27T03:54:36.390Z,73.22
2023-04-27T03:57:08.170Z,73.27
2023-04-27T03:59:39.624Z,73.22
2023-04-27T04:02:11.750Z,73.38
2023-04-27T04:04:43.102Z,73.71
2023-04-27T04:07:15.331Z,73.84
2023-04-27T04:09:48.301Z,73.72
2023-04-27T04:12:20.070Z,73.92
2023-04-27T04:14:52.389Z,73.75
2023-04-27T04:17:24.513Z,73.82
2023-04-27T04:19:56.470Z,73.78
2023-04-27T04:22:28.762Z,73.91
2023-04-27T04:25:03.742Z,74.13
2023-04-27T04:27:36.098Z,74.26
2023-04-27T04:30:11.656Z,73.98
2023-04-27T04:32:45.028Z,74.24
2023-04-27T04:35:19.533Z,74.52
2023-04-27T04:37:51.363Z,74.32
2023-04-27T04:40:23.263Z,74.26
2023-04-27T04:42:55.000Z,74.12
2023-04-27T04:45:27.008Z,74.12
2023-04-27T04:48:00.923Z,74.38
2023-04-27T04:50:32.929Z,74.29
2023-04-27T04:53:04.724Z,74.37
2023-04-27T04:55:38.417Z,74.68
2023-04-27T04:58:11.859Z,74.51
2023-04-27T05:00:43.859Z,74.51
2023-04-27T05:03:15.776Z,74.31
2023-04-27T05:05:49.003Z,74.14
2023-04-27T05:08:21.231Z,74.20
2023-04-27T05:10:54.628Z,73.74
2023-04-27T05:13:26.856Z,73.46
2023-04-27T05:15:58.958Z,73.92
2023-04-27T05:18:30.868Z,73.88
2023-04-27T05:21:02.840Z,73.78
2023-04-27T05:23:34.663Z,73.65
2023-04-27T05:26:15.575Z,74.23
2023-04-27T05:28:49.246Z,73.76
2023-04-27T05:31:21.703Z,73.43
2023-04-27T05:33:53.695Z,73.45
2023-04-27T05:36:25.510Z,73.41
2023-04-27T05:38:57.354Z,73.62
2023-04-27T05:41:30.345Z,73.55
2023-04-27T05:44:02.257Z,73.65
2023-04-27T05:46:35.387Z,73.88
2023-04-27T05:49:09.389Z,73.67
2023-04-27T05:51:41.333Z,73.46
2023-04-27T05:54:13.392Z,72.71
2023-04-27T05:56:45.567Z,72.42
2023-04-27T05:59:17.395Z,72.20
2023-04-27T06:01:49.303Z,72.80
2023-04-27T06:04:21.525Z,72.18
2023-04-27T06:06:53.713Z,71.66
2023-04-27T06:09:25.536Z,71.92
2023-04-27T06:11:58.490Z,71.23
2023-04-27T06:14:30.545Z,71.14
2023-04-27T06:17:02.460Z,71.04
2023-04-27T06:19:34.330Z,71.10
2023-04-27T06:22:06.206Z,71.17
2023-04-27T06:24:38.090Z,70.90
2023-04-27T06:27:10.299Z,70.67
2023-04-27T06:29:42.809Z,70.40
2023-04-27T06:32:14.694Z,69.94
2023-04-27T06:34:46.975Z,69.57
2023-04-27T06:37:18.891Z,69.42
2023-04-27T06:39:50.895Z,69.44
2023-04-27T06:42:22.777Z,69.56
2023-04-27T06:44:57.322Z,69.66
2023-04-27T06:47:29.534Z,70.30
2023-04-27T06:50:01.550Z,70.23
2023-04-27T06:52:35.599Z,70.15
2023-04-27T06:55:09.030Z,69.85
2023-04-27T06:57:40.804Z,69.49
2023-04-27T07:00:15.298Z,69.23
2023-04-27T07:02:47.920Z,69.00
2023-04-27T07:05:20.010Z,68.63
2023-04-27T07:07:51.987Z,68.17
2023-04-27T07:10:23.831Z,67.83
2023-04-27T07:12:55.795Z,67.59
2023-04-27T07:15:28.113Z,67.26
2023-04-27T07:18:00.033Z,66.77
2023-04-27T07:20:31.901Z,66.53
2023-04-27T07:23:04.074Z,65.87
2023-04-27T07:25:36.353Z,65.45
2023-04-27T07:28:08.941Z,65.17
2023-04-27T07:30:39.377Z,65.02
2023-04-27T07:33:11.553Z,65.11
2023-04-27T07:35:44.027Z,64.73
2023-04-27T07:38:17.384Z,63.16
2023-04-27T07:40:50.397Z,61.11
2023-04-27T07:43:23.756Z,59.86
2023-04-27T07:45:58.267Z,59.32
2023-04-27T07:48:30.831Z,58.07
2023-04-27T07:51:02.841Z,57.76
2023-04-27T07:53:38.061Z,56.90
2023-04-27T07:56:11.266Z,56.77
2023-04-27T07:58:43.274Z,55.88
2023-04-27T08:01:15.699Z,55.72
2023-04-27T08:03:47.812Z,56.58
2023-04-27T08:06:21.044Z,56.49
2023-04-27T08:08:53.337Z,55.29
2023-04-27T08:11:25.316Z,54.82
2023-04-27T08:13:57.139Z,54.87
2023-04-27T08:16:29.122Z,54.55
2023-04-27T08:19:01.383Z,54.79
2023-04-27T08:21:33.141Z,54.77
2023-04-27T08:24:06.055Z,55.70
2023-04-27T08:26:37.875Z,54.66
2023-04-27T08:29:23.709Z,54.46
2023-04-27T08:32:02.498Z,55.40
2023-04-27T08:34:34.472Z,55.70
2023-04-27T08:37:07.120Z,55.39
2023-04-27T08:39:37.392Z,54.71
2023-04-27T08:42:15.327Z,53.51
2023-04-27T08:44:47.512Z,54.21
2023-04-27T08:47:25.761Z,54.66
2023-04-27T08:50:08.898Z,54.04
2023-04-27T08:52:41.197Z,53.41
2023-04-27T08:55:15.850Z,52.60
2023-04-27T08:57:58.614Z,51.45
2023-04-27T09:00:41.926Z,51.58
2023-04-27T09:03:25.380Z,51.38
2023-04-27T09:06:05.190Z,51.30
2023-04-27T09:08:48.862Z,50.31
2023-04-27T09:11:32.484Z,50.34
2023-04-27T09:14:16.408Z,49.54
2023-04-27T09:16:55.797Z,48.96
2023-04-27T09:19:29.423Z,48.54
2023-04-27T09:22:09.585Z,48.53
2023-04-27T09:24:50.958Z,46.95
2023-04-27T09:27:25.989Z,46.89
2023-04-27T09:29:59.142Z,46.26
2023-04-27T09:32:31.161Z,46.53
2023-04-27T09:35:04.330Z,45.66
2023-04-27T09:37:37.036Z,46.15
2023-04-27T09:40:11.339Z,46.12
2023-04-27T09:42:43.868Z,45.71
2023-04-27T09:45:16.271Z,46.40
2023-04-27T09:47:48.647Z,46.84
2023-04-27T09:50:21.867Z,46.10
2023-04-27T09:52:53.833Z,45.38
2023-04-27T09:55:29.951Z,44.98
2023-04-27T09:58:19.123Z,45.97
2023-04-27T10:01:04.205Z,46.21
2023-04-27T10:04:03.854Z,46.39
2023-04-27T10:07:01.362Z,46.04
2023-04-27T10:09:41.814Z,44.09
2023-04-27T10:12:22.674Z,43.53
2023-04-27T10:14:57.109Z,43.16
2023-04-27T10:17:33.435Z,43.07
2023-04-27T10:20:09.103Z,43.36
2023-04-27T10:22:43.456Z,42.71
2023-04-27T10:25:22.747Z,43.09
2023-04-27T10:27:56.963Z,42.82
2023-04-27T10:30:33.664Z,43.08
2023-04-27T10:33:10.087Z,42.96
2023-04-27T10:35:44.200Z,42.86
2023-04-27T10:38:21.071Z,42.33
2023-04-27T10:41:01.385Z,41.63
2023-04-27T10:43:35.631Z,41.62
2023-04-27T10:46:12.662Z,42.30
2023-04-27T10:48:45.344Z,43.13
2023-04-27T10:51:17.982Z,43.35
2023-04-27T10:53:55.147Z,44.13
2023-04-27T10:56:27.089Z,44.41
2023-04-27T10:59:05.121Z,44.75
2023-04-27T11:01:37.529Z,44.89
2023-04-27T11:04:09.476Z,44.85
2023-04-27T11:06:53.689Z,44.55
2023-04-27T11:09:34.800Z,44.77
2023-04-27T11:12:10.099Z,44.69
2023-04-27T11:14:45.066Z,44.80
2023-04-27T11:17:28.666Z,45.05
2023-04-27T11:20:00.931Z,45.14
2023-04-27T11:22:33.102Z,44.58
2023-04-27T11:25:05.344Z,44.03
2023-04-27T11:27:41.803Z,43.81
2023-04-27T11:30:24.234Z,43.54
2023-04-27T11:32:56.243Z,43.66
2023-04-27T11:35:36.922Z,43.95
2023-04-27T11:38:08.998Z,43.83
2023-04-27T11:40:41.909Z,43.51
2023-04-27T11:43:16.381Z,43.18
2023-04-27T11:45:48.940Z,43.07
2023-04-27T11:48:19.699Z,43.19
2023-04-27T11:50:53.318Z,43.39
2023-04-27T11:53:33.812Z,43.51
2023-04-27T11:56:07.818Z,42.72
2023-04-27T11:58:40.736Z,42.60
2023-04-27T12:01:12.928Z,42.32
2023-04-27T12:03:45.074Z,42.49
2023-04-27T12:06:32.239Z,42.74
2023-04-27T12:09:05.332Z,42.37
2023-04-27T12:11:37.373Z,42.01
2023-04-27T12:14:09.326Z,41.04
2023-04-27T12:16:41.284Z,39.04
2023-04-27T12:19:13.163Z,39.17
2023-04-27T12:21:45.524Z,39.58
2023-04-27T12:24:17.424Z,40.12
2023-04-27T12:26:49.569Z,40.49
2023-04-27T12:29:22.270Z,40.36
2023-04-27T12:31:53.222Z,40.63
2023-04-27T12:34:25.939Z,40.83
2023-04-27T12:36:58.265Z,40.64
2023-04-27T12:39:30.373Z,40.93
2023-04-27T12:42:03.695Z,41.34
2023-04-27T12:44:36.321Z,40.19
2023-04-27T12:47:08.337Z,39.64
2023-04-27T12:49:40.493Z,39.98
2023-04-27T12:52:12.532Z,40.84
2023-04-27T12:54:45.058Z,41.38
2023-04-27T12:57:16.975Z,41.73
2023-04-27T12:59:49.179Z,41.76
2023-04-27T13:02:21.234Z,41.39
2023-04-27T13:04:53.348Z,41.08
2023-04-27T13:07:25.442Z,41.30
2023-04-27T13:09:57.646Z,41.49
2023-04-27T13:12:29.802Z,41.65
2023-04-27T13:15:01.635Z,41.81
2023-04-27T13:17:33.730Z,42.00
2023-04-27T13:20:06.490Z,42.55
2023-04-27T13:22:36.853Z,42.47
2023-04-27T13:25:10.616Z,42.34
2023-04-27T13:27:42.613Z,42.16
2023-04-27T13:30:15.062Z,41.65
2023-04-27T13:32:47.423Z,42.00
2023-04-27T13:35:19.836Z,42.13
2023-04-27T13:37:54.016Z,42.17
2023-04-27T13:40:26.390Z,42.05
2023-04-27T13:43:01.058Z,42.42
2023-04-27T13:45:33.479Z,42.38
2023-04-27T13:48:05.679Z,42.84
2023-04-27T13:50:37.746Z,42.59
2023-04-27T13:53:09.785Z,42.52
2023-04-27T13:55:41.833Z,42.77
2023-04-27T13:58:13.971Z,42.94
2023-04-27T14:00:48.234Z,42.65
2023-04-27T14:03:20.759Z,43.00
2023-04-27T14:05:53.278Z,44.03
2023-04-27T14:08:25.197Z,43.36
2023-04-27T14:10:57.839Z,42.98
2023-04-27T14:13:29.838Z,42.02
2023-04-27T14:16:00.962Z,41.89
2023-04-27T14:18:33.421Z,42.78
2023-04-27T14:21:05.512Z,41.84
2023-04-27T14:23:37.568Z,41.86
2023-04-27T14:26:10.179Z,41.84
2023-04-27T14:28:42.980Z,41.70
2023-04-27T14:31:14.248Z,41.95
2023-04-27T14:33:47.392Z,42.30
2023-04-27T14:36:19.361Z,41.93
2023-04-27T14:38:51.329Z,41.46
2023-04-27T14:41:23.697Z,42.14
2023-04-27T14:43:55.594Z,42.62
2023-04-27T14:46:28.501Z,42.39
2023-04-27T14:49:00.555Z,42.42
2023-04-27T14:51:33.437Z,42.74
2023-04-27T14:54:05.567Z,43.06
2023-04-27T14:56:37.922Z,43.30
2023-04-27T14:59:09.806Z,43.16
2023-04-27T15:01:41.632Z,43.34
2023-04-27T15:04:14.481Z,42.59
2023-04-27T15:06:46.893Z,43.51
2023-04-27T15:09:19.234Z,43.17
2023-04-27T15:11:51.298Z,42.18
2023-04-27T15:14:23.186Z,42.10
2023-04-27T15:16:55.134Z,41.91
2023-04-27T15:19:27.171Z,41.51
2023-04-27T15:21:59.008Z,41.28
2023-04-27T15:24:31.176Z,41.87
2023-04-27T15:27:03.304Z,41.78
2023-04-27T15:29:35.151Z,42.28
2023-04-27T15:32:07.401Z,42.27
2023-04-27T15:34:42.595Z,41.88
2023-04-27T15:37:14.520Z,41.33
2023-04-27T15:39:46.928Z,40.81
2023-04-27T15:42:18.914Z,41.04
2023-04-27T15:44:51.296Z,41.74
2023-04-27T15:47:23.273Z,42.11
2023-04-27T15:49:57.938Z,41.86
2023-04-27T15:52:30.451Z,41.56
2023-04-27T15:55:07.174Z,41.49
2023-04-27T15:57:39.326Z,41.56
2023-04-27T16:00:15.298Z,41.39
2023-04-27T16:02:47.436Z,41.42
2023-04-27T16:05:19.370Z,40.62
2023-04-27T16:07:51.420Z,40.06
2023-04-27T16:10:23.835Z,40.16
2023-04-27T16:12:56.146Z,40.72
2023-04-27T16:15:26.919Z,41.37
2023-04-27T16:17:58.909Z,41.81
2023-04-27T16:20:32.032Z,41.89
2023-04-27T16:23:04.918Z,41.11
2023-04-27T16:25:37.470Z,40.91
2023-04-27T16:28:12.108Z,40.62
2023-04-27T16:30:44.346Z,40.10
2023-04-27T16:33:16.331Z,39.53
2023-04-27T16:35:48.340Z,38.97
2023-04-27T16:38:20.658Z,38.10
2023-04-27T16:40:55.496Z,38.23
2023-04-27T16:43:27.940Z,38.90
2023-04-27T16:45:59.943Z,39.33
2023-04-27T16:48:31.910Z,40.23
2023-04-27T16:51:03.773Z,41.41
2023-04-27T16:53:35.802Z,41.91
2023-04-27T16:56:10.087Z,42.93
2023-04-27T16:58:42.002Z,43.09
2023-04-27T17:01:13.854Z,43.65
2023-04-27T17:03:45.870Z,44.08
2023-04-27T17:06:18.035Z,44.62
2023-04-27T17:08:50.152Z,45.28
2023-04-27T17:11:22.324Z,45.22
2023-04-27T17:13:54.570Z,45.13
2023-04-27T17:16:27.212Z,45.04
2023-04-27T17:18:57.712Z,45.00
2023-04-27T17:21:29.617Z,45.51
2023-04-27T17:24:01.511Z,45.73
2023-04-27T17:26:33.585Z,46.06
2023-04-27T17:29:05.920Z,46.19
2023-04-27T17:31:37.976Z,46.71
2023-04-27T17:34:10.202Z,47.38
2023-04-27T17:36:43.467Z,47.64
2023-04-27T17:39:15.748Z,47.23
2023-04-27T17:41:48.194Z,47.51
2023-04-27T17:44:19.996Z,47.85
2023-04-27T17:46:53.296Z,48.05
2023-04-27T17:49:28.388Z,48.40
2023-04-27T17:52:00.684Z,48.10
2023-04-27T17:54:32.667Z,47.78
2023-04-27T17:57:04.922Z,47.82
2023-04-27T17:59:37.138Z,48.30
2023-04-27T18:02:09.115Z,48.68
2023-04-27T18:04:41.307Z,48.90
2023-04-27T18:07:13.311Z,49.01
2023-04-27T18:09:45.193Z,49.46
2023-04-27T18:12:16.977Z,49.66
2023-04-27T18:14:50.747Z,49.89
2023-04-27T18:17:22.899Z,49.73
2023-04-27T18:20:07.692Z,49.75
2023-04-27T18:22:42.428Z,50.16
2023-04-27T18:25:14.491Z,50.21
2023-04-27T18:27:48.410Z,50.89
2023-04-27T18:30:20.655Z,52.71
2023-04-27T18:32:52.534Z,51.88
2023-04-27T18:35:24.903Z,51.89
2023-04-27T18:37:56.794Z,51.64
2023-04-27T18:40:28.539Z,52.13
2023-04-27T18:43:00.559Z,51.98
2023-04-27T18:45:32.771Z,52.12
2023-04-27T18:48:04.708Z,51.95
2023-04-27T18:50:36.475Z,51.74
2023-04-27T18:53:08.129Z,51.64
2023-04-27T18:55:40.506Z,51.86
2023-04-27T18:58:12.445Z,52.09
2023-04-27T19:00:44.257Z,52.02
2023-04-27T19:03:16.400Z,52.14
2023-04-27T19:05:48.727Z,52.10
2023-04-27T19:08:20.483Z,51.96
2023-04-27T19:10:54.229Z,52.10
2023-04-27T19:13:26.134Z,52.00
2023-04-27T19:15:59.544Z,53.13
2023-04-27T19:18:31.353Z,52.91
2023-04-27T19:21:04.064Z,52.48
2023-04-27T19:23:36.313Z,52.40
2023-04-27T19:26:12.914Z,52.62
2023-04-27T19:28:46.279Z,52.65
2023-04-27T19:31:18.244Z,52.64
2023-04-27T19:33:55.246Z,52.74
2023-04-27T19:36:28.216Z,52.86
2023-04-27T19:39:00.352Z,53.04
2023-04-27T19:41:32.360Z,53.04
2023-04-27T19:44:05.510Z,53.30
2023-04-27T19:46:37.531Z,53.73
2023-04-27T19:49:09.263Z,55.58
2023-04-27T19:51:42.663Z,54.65
2023-04-27T19:54:14.710Z,54.38
2023-04-27T19:56:46.732Z,54.40
2023-04-27T19:59:18.692Z,53.95
2023-04-27T20:01:50.967Z,55.19
2023-04-27T20:04:23.579Z,55.73
2023-04-27T20:06:56.379Z,55.47
2023-04-27T20:09:28.158Z,55.00
2023-04-27T20:11:59.941Z,54.69
2023-04-27T20:14:35.051Z,54.71
2023-04-27T20:17:07.016Z,54.50
2023-04-27T20:19:40.609Z,54.46
2023-04-27T20:22:12.669Z,54.61
2023-04-27T20:24:45.283Z,54.71
2023-04-27T20:27:17.466Z,54.79
2023-04-27T20:29:49.187Z,54.88
2023-04-27T20:32:21.480Z,54.97
2023-04-27T20:34:53.777Z,54.99
2023-04-27T20:37:26.292Z,55.50
2023-04-27T20:39:58.055Z,55.67
2023-04-27T20:42:30.540Z,55.61
2023-04-27T20:45:05.402Z,57.65
2023-04-27T20:47:37.645Z,58.22
2023-04-27T20:50:10.756Z,58.10
2023-04-27T20:52:41.116Z,58.86
2023-04-27T20:55:12.847Z,60.27
2023-04-27T20:57:44.818Z,61.08
2023-04-27T21:00:18.689Z,61.47
2023-04-27T21:02:51.310Z,62.59
2023-04-27T21:05:23.486Z,63.77
2023-04-27T21:07:55.256Z,64.17
2023-04-27T21:10:27.130Z,64.03
2023-04-27T21:13:00.270Z,64.41
2023-04-27T21:15:33.326Z,64.64
2023-04-27T21:18:07.893Z,65.66
2023-04-27T21:20:41.480Z,66.54
2023-04-27T21:23:14.731Z,66.46
2023-04-27T21:25:47.614Z,67.06
2023-04-27T21:28:19.531Z,67.44
2023-04-27T21:30:51.804Z,67.43
2023-04-27T21:33:23.696Z,67.31
2023-04-27T21:35:55.605Z,67.47
2023-04-27T21:38:27.346Z,68.10
2023-04-27T21:40:59.620Z,68.28
2023-04-27T21:43:31.422Z,68.17
2023-04-27T21:46:03.314Z,67.89
2023-04-27T21:48:35.292Z,67.92
2023-04-27T21:51:07.164Z,68.09
2023-04-27T21:53:39.226Z,68.43
2023-04-27T21:56:11.352Z,69.35
2023-04-27T21:58:43.142Z,69.35
2023-04-27T22:01:15.402Z,69.48
2023-04-27T22:03:47.239Z,69.58
2023-04-27T22:06:19.460Z,69.61
2023-04-27T22:08:51.516Z,70.14
2023-04-27T22:11:23.360Z,70.45
2023-04-27T22:13:56.173Z,70.89
2023-04-27T22:16:30.132Z,71.57
2023-04-27T22:19:02.106Z,71.53
2023-04-27T22:21:33.798Z,71.89
2023-04-27T22:24:05.760Z,71.92
2023-04-27T22:26:37.790Z,72.39
2023-04-27T22:29:09.482Z,72.18
2023-04-27T22:31:41.543Z,72.58
2023-04-27T22:34:14.516Z,72.85
2023-04-27T22:36:46.617Z,73.23
2023-04-27T22:39:21.150Z,73.05
2023-04-27T22:41:52.874Z,73.12
2023-04-27T22:44:24.589Z,73.41
2023-04-27T22:46:56.926Z,73.71
2023-04-27T22:49:28.725Z,73.73
2023-04-27T22:52:00.459Z,73.01
2023-04-27T22:54:32.289Z,72.24
2023-04-27T22:57:04.375Z,71.57
2023-04-27T22:59:36.418Z,71.96
2023-04-27T23:02:08.295Z,72.93
2023-04-27T23:04:41.095Z,73.71
2023-04-27T23:07:12.946Z,74.19
2023-04-27T23:09:44.826Z,74.78
2023-04-27T23:12:17.426Z,74.29
2023-04-27T23:14:49.225Z,74.19
2023-04-27T23:17:22.625Z,74.46
2023-04-27T23:19:54.523Z,74.92
2023-04-27T23:22:26.303Z,74.98
2023-04-27T23:24:58.163Z,75.33
2023-04-27T23:27:29.873Z,75.76
2023-04-27T23:30:01.855Z,75.78
2023-04-27T23:32:34.557Z,75.66
2023-04-27T23:35:05.047Z,75.98
2023-04-27T23:37:36.803Z,76.00
2023-04-27T23:40:12.195Z,75.95
2023-04-27T23:42:43.991Z,76.59
2023-04-27T23:45:16.016Z,75.58
2023-04-27T23:47:48.102Z,76.02
2023-04-27T23:50:20.002Z,75.57
2023-04-27T23:52:51.702Z,75.42
2023-04-27T23:55:24.160Z,75.08
2023-04-27T23:57:56.238Z,75.03
